sensor_id;sensor_type;location;lat;lon;timestamp;temperature;humidity
210;DHT22;90;48.810;9.120;2023-05-17T00:00:15;8.80;74.50
210;DHT22;90;48.810;9.120;2023-05-17T00:02:42;8.80;74.40
210;DHT22;90;48.810;9.120;2023-05-17T00:05:09;8.80;74.40
210;DHT22;90;48.810;9.120;2023-05-17T00:07:36;8.80;74.40
210;DHT22;90;48.810;9.120;2023-05-17T00:10:03;8.70;74.50
210;DHT22;90;48.810;9.120;2023-05-17T00:12:30;8.70;74.40
210;DHT22;90;48.810;9.120;2023-05-17T00:14:57;8.70;74.70
210;DHT22;90;48.810;9.120;2023-05-17T00:17:25;8.70;74.60
210;DHT22;90;48.810;9.120;2023-05-17T00:19:51;8.60;74.60
210;DHT22;90;48.810;9.120;2023-05-17T00:22:18;8.60;74.90
210;DHT22;90;48.810;9.120;2023-05-17T00:24:45;8.60;75.00
210;DHT22;90;48.810;9.120;2023-05-17T00:27:11;8.60;75.00
210;DHT22;90;48.810;9.120;2023-05-17T00:29:38;8.50;75.10
210;DHT22;90;48.810;9.120;2023-05-17T00:32:05;8.50;75.10
210;DHT22;90;48.810;9.120;2023-05-17T00:34:33;8.50;75.10
210;DHT22;90;48.810;9.120;2023-05-17T00:37:00;8.50;75.20
210;DHT22;90;48.810;9.120;2023-05-17T00:39:27;8.50;75.10
210;DHT22;90;48.810;9.120;2023-05-17T00:41:53;8.50;75.30
210;DHT22;90;48.810;9.120;2023-05-17T00:44:20;8.40;75.50
210;DHT22;90;48.810;9.120;2023-05-17T00:46:47;8.40;75.50
210;DHT22;90;48.810;9.120;2023-05-17T00:49:15;8.30;75.80
210;DHT22;90;48.810;9.120;2023-05-17T00:51:43;8.30;75.90
210;DHT22;90;48.810;9.120;2023-05-17T00:54:10;8.20;75.90
210;DHT22;90;48.810;9.120;2023-05-17T00:56:37;8.20;75.90
210;DHT22;90;48.810;9.120;2023-05-17T00:59:05;8.20;76.10
210;DHT22;90;48.810;9.120;2023-05-17T01:01:33;8.30;75.90
210;DHT22;90;48.810;9.120;2023-05-17T01:04:01;8.30;75.90
210;DHT22;90;48.810;9.120;2023-05-17T01:06:27;8.40;75.80
210;DHT22;90;48.810;9.120;2023-05-17T01:08:55;8.40;76.00
210;DHT22;90;48.810;9.120;2023-05-17T01:11:28;8.40;76.10
210;DHT22;90;48.810;9.120;2023-05-17T01:14:04;8.40;75.50
210;DHT22;90;48.810;9.120;2023-05-17T01:16:38;8.40;76.10
210;DHT22;90;48.810;9.120;2023-05-17T01:19:11;8.40;76.50
210;DHT22;90;48.810;9.120;2023-05-17T01:21:56;8.50;76.40
210;DHT22;90;48.810;9.120;2023-05-17T01:24:29;8.40;76.40
210;DHT22;90;48.810;9.120;2023-05-17T01:27:02;8.40;76.50
210;DHT22;90;48.810;9.120;2023-05-17T01:29:31;8.30;76.80
210;DHT22;90;48.810;9.120;2023-05-17T01:31:58;8.30;76.80
210;DHT22;90;48.810;9.120;2023-05-17T01:34:28;8.30;76.60
210;DHT22;90;48.810;9.120;2023-05-17T01:36:55;8.30;76.70
210;DHT22;90;48.810;9.120;2023-05-17T01:39:22;8.30;76.50
210;DHT22;90;48.810;9.120;2023-05-17T01:41:55;8.30;76.60
210;DHT22;90;48.810;9.120;2023-05-17T01:44:28;8.30;76.80
210;DHT22;90;48.810;9.120;2023-05-17T01:47:01;8.30;77.10
210;DHT22;90;48.810;9.120;2023-05-17T01:49:33;8.30;76.60
210;DHT22;90;48.810;9.120;2023-05-17T01:52:06;8.40;75.60
210;DHT22;90;48.810;9.120;2023-05-17T01:54:37;8.40;76.90
210;DHT22;90;48.810;9.120;2023-05-17T01:57:05;8.40;77.00
210;DHT22;90;48.810;9.120;2023-05-17T01:59:37;8.40;76.70
210;DHT22;90;48.810;9.120;2023-05-17T02:02:04;8.50;75.40
210;DHT22;90;48.810;9.120;2023-05-17T02:04:33;8.50;76.20
210;DHT22;90;48.810;9.120;2023-05-17T02:07:00;8.50;76.30
210;DHT22;90;48.810;9.120;2023-05-17T02:09:27;8.40;76.80
210;DHT22;90;48.810;9.120;2023-05-17T02:11:53;8.50;77.10
210;DHT22;90;48.810;9.120;2023-05-17T02:14:20;8.40;77.10
210;DHT22;90;48.810;9.120;2023-05-17T02:16:48;8.40;77.10
210;DHT22;90;48.810;9.120;2023-05-17T02:19:15;8.40;77.10
210;DHT22;90;48.810;9.120;2023-05-17T02:21:41;8.40;77.00
210;DHT22;90;48.810;9.120;2023-05-17T02:24:08;8.30;77.30
210;DHT22;90;48.810;9.120;2023-05-17T02:26:35;8.30;77.70
210;DHT22;90;48.810;9.120;2023-05-17T02:29:01;8.20;77.40
210;DHT22;90;48.810;9.120;2023-05-17T02:31:28;8.20;77.40
210;DHT22;90;48.810;9.120;2023-05-17T02:33:56;8.10;77.70
210;DHT22;90;48.810;9.120;2023-05-17T02:36:23;8.10;77.90
210;DHT22;90;48.810;9.120;2023-05-17T02:38:49;8.10;78.00
210;DHT22;90;48.810;9.120;2023-05-17T02:41:16;8.10;78.10
210;DHT22;90;48.810;9.120;2023-05-17T02:43:43;8.10;78.40
210;DHT22;90;48.810;9.120;2023-05-17T02:46:10;8.10;78.40
210;DHT22;90;48.810;9.120;2023-05-17T02:48:36;8.10;78.30
210;DHT22;90;48.810;9.120;2023-05-17T02:51:05;8.00;78.60
210;DHT22;90;48.810;9.120;2023-05-17T02:53:31;7.90;78.80
210;DHT22;90;48.810;9.120;2023-05-17T02:55:58;7.90;78.60
210;DHT22;90;48.810;9.120;2023-05-17T02:58:25;7.90;79.00
210;DHT22;90;48.810;9.120;2023-05-17T03:00:52;7.80;78.80
210;DHT22;90;48.810;9.120;2023-05-17T03:03:18;7.80;79.00
210;DHT22;90;48.810;9.120;2023-05-17T03:05:45;7.80;78.90
210;DHT22;90;48.810;9.120;2023-05-17T03:08:13;7.80;79.00
210;DHT22;90;48.810;9.120;2023-05-17T03:10:40;7.80;78.90
210;DHT22;90;48.810;9.120;2023-05-17T03:13:06;7.70;78.90
210;DHT22;90;48.810;9.120;2023-05-17T03:15:33;7.80;79.00
210;DHT22;90;48.810;9.120;2023-05-17T03:18:00;7.80;79.00
210;DHT22;90;48.810;9.120;2023-05-17T03:20:26;7.80;79.00
210;DHT22;90;48.810;9.120;2023-05-17T03:22:53;7.80;79.00
210;DHT22;90;48.810;9.120;2023-05-17T03:25:21;7.70;79.20
210;DHT22;90;48.810;9.120;2023-05-17T03:27:48;7.70;79.30
210;DHT22;90;48.810;9.120;2023-05-17T03:30:14;7.60;79.40
210;DHT22;90;48.810;9.120;2023-05-17T03:32:41;7.60;79.30
210;DHT22;90;48.810;9.120;2023-05-17T03:35:08;7.60;79.30
210;DHT22;90;48.810;9.120;2023-05-17T03:37:35;7.50;79.70
210;DHT22;90;48.810;9.120;2023-05-17T03:40:01;7.50;79.90
210;DHT22;90;48.810;9.120;2023-05-17T03:42:30;7.50;79.90
210;DHT22;90;48.810;9.120;2023-05-17T03:44:57;7.50;80.00
210;DHT22;90;48.810;9.120;2023-05-17T03:47:24;7.50;79.80
210;DHT22;90;48.810;9.120;2023-05-17T03:49:50;7.50;79.90
210;DHT22;90;48.810;9.120;2023-05-17T03:52:17;7.50;80.00
210;DHT22;90;48.810;9.120;2023-05-17T03:54:43;7.50;80.00
210;DHT22;90;48.810;9.120;2023-05-17T03:57:10;7.50;80.10
210;DHT22;90;48.810;9.120;2023-05-17T03:59:38;7.50;79.90
210;DHT22;90;48.810;9.120;2023-05-17T04:02:05;7.40;80.10
210;DHT22;90;48.810;9.120;2023-05-17T04:04:31;7.40;80.00
210;DHT22;90;48.810;9.120;2023-05-17T04:06:58;7.50;80.10
210;DHT22;90;48.810;9.120;2023-05-17T04:09:25;7.50;80.20
210;DHT22;90;48.810;9.120;2023-05-17T04:11:52;7.50;80.00
210;DHT22;90;48.810;9.120;2023-05-17T04:14:18;7.50;80.10
210;DHT22;90;48.810;9.120;2023-05-17T04:16:48;7.50;80.10
210;DHT22;90;48.810;9.120;2023-05-17T04:19:14;7.50;80.10
210;DHT22;90;48.810;9.120;2023-05-17T04:21:41;7.50;80.30
210;DHT22;90;48.810;9.120;2023-05-17T04:24:08;7.50;80.50
210;DHT22;90;48.810;9.120;2023-05-17T04:26:34;7.50;80.80
210;DHT22;90;48.810;9.120;2023-05-17T04:29:01;7.50;80.70
210;DHT22;90;48.810;9.120;2023-05-17T04:31:28;7.50;80.80
210;DHT22;90;48.810;9.120;2023-05-17T04:33:56;7.50;80.90
210;DHT22;90;48.810;9.120;2023-05-17T04:36:23;7.40;81.00
210;DHT22;90;48.810;9.120;2023-05-17T04:38:49;7.40;81.20
210;DHT22;90;48.810;9.120;2023-05-17T04:41:16;7.50;81.20
210;DHT22;90;48.810;9.120;2023-05-17T04:43:43;7.50;81.20
210;DHT22;90;48.810;9.120;2023-05-17T04:46:09;7.50;81.40
210;DHT22;90;48.810;9.120;2023-05-17T04:48:36;7.60;81.50
210;DHT22;90;48.810;9.120;2023-05-17T04:51:04;7.60;81.60
210;DHT22;90;48.810;9.120;2023-05-17T04:53:31;7.70;81.20
210;DHT22;90;48.810;9.120;2023-05-17T04:55:58;7.70;81.20
210;DHT22;90;48.810;9.120;2023-05-17T04:58:25;7.70;81.50
210;DHT22;90;48.810;9.120;2023-05-17T05:00:52;7.80;81.50
210;DHT22;90;48.810;9.120;2023-05-17T05:03:19;7.80;81.20
210;DHT22;90;48.810;9.120;2023-05-17T05:05:47;7.90;80.90
210;DHT22;90;48.810;9.120;2023-05-17T05:08:15;7.90;80.50
210;DHT22;90;48.810;9.120;2023-05-17T05:10:42;8.00;80.60
210;DHT22;90;48.810;9.120;2023-05-17T05:13:08;8.00;80.70
210;DHT22;90;48.810;9.120;2023-05-17T05:15:35;8.10;80.70
210;DHT22;90;48.810;9.120;2023-05-17T05:18:02;8.20;80.50
210;DHT22;90;48.810;9.120;2023-05-17T05:20:30;8.20;80.40
210;DHT22;90;48.810;9.120;2023-05-17T05:22:56;8.20;79.50
210;DHT22;90;48.810;9.120;2023-05-17T05:25:26;8.20;79.70
210;DHT22;90;48.810;9.120;2023-05-17T05:27:53;8.30;80.00
210;DHT22;90;48.810;9.120;2023-05-17T05:30:19;8.40;80.00
210;DHT22;90;48.810;9.120;2023-05-17T05:32:47;8.50;79.90
210;DHT22;90;48.810;9.120;2023-05-17T05:35:14;8.60;80.00
210;DHT22;90;48.810;9.120;2023-05-17T05:37:42;8.70;80.10
210;DHT22;90;48.810;9.120;2023-05-17T05:40:09;8.70;79.40
210;DHT22;90;48.810;9.120;2023-05-17T05:42:37;8.80;79.00
210;DHT22;90;48.810;9.120;2023-05-17T05:45:05;8.80;78.90
210;DHT22;90;48.810;9.120;2023-05-17T05:47:32;8.80;78.70
210;DHT22;90;48.810;9.120;2023-05-17T05:49:59;8.70;78.50
210;DHT22;90;48.810;9.120;2023-05-17T05:52:26;8.90;78.40
210;DHT22;90;48.810;9.120;2023-05-17T05:54:52;8.90;76.50
210;DHT22;90;48.810;9.120;2023-05-17T05:57:19;8.90;76.90
210;DHT22;90;48.810;9.120;2023-05-17T05:59:47;8.90;76.80
210;DHT22;90;48.810;9.120;2023-05-17T06:02:14;8.90;77.00
210;DHT22;90;48.810;9.120;2023-05-17T06:04:41;9.00;77.80
210;DHT22;90;48.810;9.120;2023-05-17T06:07:07;9.20;76.80
210;DHT22;90;48.810;9.120;2023-05-17T06:09:34;9.20;76.70
210;DHT22;90;48.810;9.120;2023-05-17T06:12:01;9.40;75.80
210;DHT22;90;48.810;9.120;2023-05-17T06:14:30;9.40;75.20
210;DHT22;90;48.810;9.120;2023-05-17T06:16:58;9.40;75.20
210;DHT22;90;48.810;9.120;2023-05-17T06:19:25;9.40;75.20
210;DHT22;90;48.810;9.120;2023-05-17T06:21:52;9.40;75.40
210;DHT22;90;48.810;9.120;2023-05-17T06:24:19;9.40;75.70
210;DHT22;90;48.810;9.120;2023-05-17T06:26:45;9.60;75.40
210;DHT22;90;48.810;9.120;2023-05-17T06:29:12;9.60;75.40
210;DHT22;90;48.810;9.120;2023-05-17T06:31:39;9.50;75.20
210;DHT22;90;48.810;9.120;2023-05-17T06:34:07;9.60;75.10
210;DHT22;90;48.810;9.120;2023-05-17T06:36:34;9.60;75.40
210;DHT22;90;48.810;9.120;2023-05-17T06:39:00;9.70;75.20
210;DHT22;90;48.810;9.120;2023-05-17T06:41:27;9.80;73.70
210;DHT22;90;48.810;9.120;2023-05-17T06:43:54;9.80;74.00
210;DHT22;90;48.810;9.120;2023-05-17T06:46:20;9.80;74.90
210;DHT22;90;48.810;9.120;2023-05-17T06:48:47;9.90;74.60
210;DHT22;90;48.810;9.120;2023-05-17T06:51:15;10.00;74.30
210;DHT22;90;48.810;9.120;2023-05-17T06:53:42;10.20;73.90
210;DHT22;90;48.810;9.120;2023-05-17T06:56:08;10.20;73.50
210;DHT22;90;48.810;9.120;2023-05-17T06:58:35;10.30;73.50
210;DHT22;90;48.810;9.120;2023-05-17T07:01:02;10.40;73.00
210;DHT22;90;48.810;9.120;2023-05-17T07:03:28;10.40;72.90
210;DHT22;90;48.810;9.120;2023-05-17T07:05:55;10.40;73.60
210;DHT22;90;48.810;9.120;2023-05-17T07:08:23;10.60;72.90
210;DHT22;90;48.810;9.120;2023-05-17T07:10:50;10.50;72.90
210;DHT22;90;48.810;9.120;2023-05-17T07:13:17;10.50;72.70
210;DHT22;90;48.810;9.120;2023-05-17T07:15:44;10.50;72.70
210;DHT22;90;48.810;9.120;2023-05-17T07:18:11;10.60;72.40
210;DHT22;90;48.810;9.120;2023-05-17T07:20:37;10.50;72.90
210;DHT22;90;48.810;9.120;2023-05-17T07:23:04;10.50;73.30
210;DHT22;90;48.810;9.120;2023-05-17T07:25:32;10.50;73.40
210;DHT22;90;48.810;9.120;2023-05-17T07:28:03;10.50;73.70
210;DHT22;90;48.810;9.120;2023-05-17T07:30:30;10.30;73.80
210;DHT22;90;48.810;9.120;2023-05-17T07:32:56;10.40;74.70
210;DHT22;90;48.810;9.120;2023-05-17T07:35:23;10.50;74.30
210;DHT22;90;48.810;9.120;2023-05-17T07:37:50;10.60;72.80
210;DHT22;90;48.810;9.120;2023-05-17T07:40:17;10.50;73.40
210;DHT22;90;48.810;9.120;2023-05-17T07:42:45;10.50;74.40
210;DHT22;90;48.810;9.120;2023-05-17T07:45:11;10.60;73.90
210;DHT22;90;48.810;9.120;2023-05-17T07:47:38;10.60;73.50
210;DHT22;90;48.810;9.120;2023-05-17T07:50:06;10.60;73.00
210;DHT22;90;48.810;9.120;2023-05-17T07:52:33;10.50;73.90
210;DHT22;90;48.810;9.120;2023-05-17T07:54:59;10.50;73.80
210;DHT22;90;48.810;9.120;2023-05-17T07:57:26;10.60;73.90
210;DHT22;90;48.810;9.120;2023-05-17T07:59:54;10.50;74.30
210;DHT22;90;48.810;9.120;2023-05-17T08:02:21;10.60;74.00
210;DHT22;90;48.810;9.120;2023-05-17T08:04:47;10.60;74.80
210;DHT22;90;48.810;9.120;2023-05-17T08:07:14;10.70;73.80
210;DHT22;90;48.810;9.120;2023-05-17T08:09:40;10.70;73.60
210;DHT22;90;48.810;9.120;2023-05-17T08:12:10;10.70;73.60
210;DHT22;90;48.810;9.120;2023-05-17T08:14:38;10.90;73.50
210;DHT22;90;48.810;9.120;2023-05-17T08:17:06;11.00;73.40
210;DHT22;90;48.810;9.120;2023-05-17T08:19:33;11.10;73.00
210;DHT22;90;48.810;9.120;2023-05-17T08:21:59;11.00;73.60
210;DHT22;90;48.810;9.120;2023-05-17T08:24:26;11.00;72.70
210;DHT22;90;48.810;9.120;2023-05-17T08:26:53;11.00;72.20
210;DHT22;90;48.810;9.120;2023-05-17T08:29:19;11.10;71.80
210;DHT22;90;48.810;9.120;2023-05-17T08:31:46;11.10;72.10
210;DHT22;90;48.810;9.120;2023-05-17T08:34:14;11.20;72.30
210;DHT22;90;48.810;9.120;2023-05-17T08:36:40;11.30;72.60
210;DHT22;90;48.810;9.120;2023-05-17T08:39:08;11.40;71.50
210;DHT22;90;48.810;9.120;2023-05-17T08:41:35;11.40;69.70
210;DHT22;90;48.810;9.120;2023-05-17T08:44:03;11.60;69.50
210;DHT22;90;48.810;9.120;2023-05-17T08:46:31;11.70;70.00
210;DHT22;90;48.810;9.120;2023-05-17T08:48:59;11.70;69.90
210;DHT22;90;48.810;9.120;2023-05-17T08:51:30;11.80;69.90
210;DHT22;90;48.810;9.120;2023-05-17T08:53:57;11.90;69.20
210;DHT22;90;48.810;9.120;2023-05-17T08:56:25;11.90;68.50
210;DHT22;90;48.810;9.120;2023-05-17T08:58:54;12.10;68.10
210;DHT22;90;48.810;9.120;2023-05-17T09:01:22;12.10;67.40
210;DHT22;90;48.810;9.120;2023-05-17T09:03:49;12.30;67.60
210;DHT22;90;48.810;9.120;2023-05-17T09:06:16;12.40;66.40
210;DHT22;90;48.810;9.120;2023-05-17T09:08:48;12.40;65.90
210;DHT22;90;48.810;9.120;2023-05-17T09:11:23;12.50;65.30
210;DHT22;90;48.810;9.120;2023-05-17T09:13:51;12.50;64.60
210;DHT22;90;48.810;9.120;2023-05-17T09:16:18;12.70;64.40
210;DHT22;90;48.810;9.120;2023-05-17T09:18:52;12.70;63.90
210;DHT22;90;48.810;9.120;2023-05-17T09:21:20;12.60;62.80
210;DHT22;90;48.810;9.120;2023-05-17T09:23:49;12.60;63.80
210;DHT22;90;48.810;9.120;2023-05-17T09:26:16;12.50;63.40
210;DHT22;90;48.810;9.120;2023-05-17T09:28:43;12.50;63.30
210;DHT22;90;48.810;9.120;2023-05-17T09:31:10;12.50;63.60
210;DHT22;90;48.810;9.120;2023-05-17T09:33:43;12.40;64.10
210;DHT22;90;48.810;9.120;2023-05-17T09:36:18;12.40;64.20
210;DHT22;90;48.810;9.120;2023-05-17T09:39:01;12.50;64.80
210;DHT22;90;48.810;9.120;2023-05-17T09:41:30;12.50;64.20
210;DHT22;90;48.810;9.120;2023-05-17T09:43:58;12.70;63.70
210;DHT22;90;48.810;9.120;2023-05-17T09:46:25;12.70;64.10
210;DHT22;90;48.810;9.120;2023-05-17T09:48:53;12.80;64.50
210;DHT22;90;48.810;9.120;2023-05-17T09:51:30;12.90;64.20
210;DHT22;90;48.810;9.120;2023-05-17T09:53:59;12.90;64.60
210;DHT22;90;48.810;9.120;2023-05-17T09:56:27;13.10;63.40
210;DHT22;90;48.810;9.120;2023-05-17T09:58:55;13.20;63.40
210;DHT22;90;48.810;9.120;2023-05-17T10:01:25;13.30;62.40
210;DHT22;90;48.810;9.120;2023-05-17T10:03:52;13.30;63.70
210;DHT22;90;48.810;9.120;2023-05-17T10:06:21;13.20;65.20
210;DHT22;90;48.810;9.120;2023-05-17T10:08:51;13.30;63.80
210;DHT22;90;48.810;9.120;2023-05-17T10:11:21;13.30;62.30
210;DHT22;90;48.810;9.120;2023-05-17T10:13:54;13.30;62.20
210;DHT22;90;48.810;9.120;2023-05-17T10:16:21;13.20;61.60
210;DHT22;90;48.810;9.120;2023-05-17T10:18:48;13.10;61.90
210;DHT22;90;48.810;9.120;2023-05-17T10:21:16;13.10;61.20
210;DHT22;90;48.810;9.120;2023-05-17T10:23:43;13.20;62.50
210;DHT22;90;48.810;9.120;2023-05-17T10:26:13;13.30;62.00
210;DHT22;90;48.810;9.120;2023-05-17T10:28:41;13.50;60.00
210;DHT22;90;48.810;9.120;2023-05-17T10:31:08;13.60;60.30
210;DHT22;90;48.810;9.120;2023-05-17T10:33:36;13.80;59.00
210;DHT22;90;48.810;9.120;2023-05-17T10:36:04;13.80;59.70
210;DHT22;90;48.810;9.120;2023-05-17T10:38:31;13.80;59.20
210;DHT22;90;48.810;9.120;2023-05-17T10:40:59;13.70;60.40
210;DHT22;90;48.810;9.120;2023-05-17T10:43:28;13.40;60.10
210;DHT22;90;48.810;9.120;2023-05-17T10:45:57;13.20;61.50
210;DHT22;90;48.810;9.120;2023-05-17T10:48:27;13.20;62.80
210;DHT22;90;48.810;9.120;2023-05-17T10:50:55;13.10;62.70
210;DHT22;90;48.810;9.120;2023-05-17T10:53:22;13.20;63.30
210;DHT22;90;48.810;9.120;2023-05-17T10:55:48;13.20;61.30
210;DHT22;90;48.810;9.120;2023-05-17T10:58:18;13.20;60.50
210;DHT22;90;48.810;9.120;2023-05-17T11:00:47;13.20;59.90
210;DHT22;90;48.810;9.120;2023-05-17T11:03:17;13.30;61.10
210;DHT22;90;48.810;9.120;2023-05-17T11:08:26;13.50;60.60
210;DHT22;90;48.810;9.120;2023-05-17T11:11:07;13.40;60.10
210;DHT22;90;48.810;9.120;2023-05-17T11:13:46;13.50;61.00
210;DHT22;90;48.810;9.120;2023-05-17T11:16:17;13.50;59.30
210;DHT22;90;48.810;9.120;2023-05-17T11:18:56;13.50;59.60
210;DHT22;90;48.810;9.120;2023-05-17T11:21:32;13.50;59.40
210;DHT22;90;48.810;9.120;2023-05-17T11:24:01;13.40;59.10
210;DHT22;90;48.810;9.120;2023-05-17T11:26:33;13.60;58.60
210;DHT22;90;48.810;9.120;2023-05-17T11:29:06;13.50;59.60
210;DHT22;90;48.810;9.120;2023-05-17T11:31:35;13.50;62.20
210;DHT22;90;48.810;9.120;2023-05-17T11:34:04;13.50;64.40
210;DHT22;90;48.810;9.120;2023-05-17T11:36:32;13.50;61.80
210;DHT22;90;48.810;9.120;2023-05-17T11:39:09;13.50;61.00
210;DHT22;90;48.810;9.120;2023-05-17T11:41:36;13.30;61.60
210;DHT22;90;48.810;9.120;2023-05-17T11:44:05;13.20;62.10
210;DHT22;90;48.810;9.120;2023-05-17T11:46:32;13.20;60.90
210;DHT22;90;48.810;9.120;2023-05-17T11:49:00;13.10;60.30
210;DHT22;90;48.810;9.120;2023-05-17T11:51:30;13.20;59.60
210;DHT22;90;48.810;9.120;2023-05-17T11:53:57;13.10;60.10
210;DHT22;90;48.810;9.120;2023-05-17T11:56:28;13.20;60.40
210;DHT22;90;48.810;9.120;2023-05-17T11:58:59;13.30;60.50
210;DHT22;90;48.810;9.120;2023-05-17T12:01:25;13.40;60.00
210;DHT22;90;48.810;9.120;2023-05-17T12:03:54;13.50;59.60
210;DHT22;90;48.810;9.120;2023-05-17T12:06:21;13.50;59.90
210;DHT22;90;48.810;9.120;2023-05-17T12:08:51;13.50;59.70
210;DHT22;90;48.810;9.120;2023-05-17T12:11:18;13.50;60.00
210;DHT22;90;48.810;9.120;2023-05-17T12:13:46;13.50;59.10
210;DHT22;90;48.810;9.120;2023-05-17T12:16:16;13.50;58.30
210;DHT22;90;48.810;9.120;2023-05-17T12:18:47;13.50;58.80
210;DHT22;90;48.810;9.120;2023-05-17T12:21:15;13.60;58.50
210;DHT22;90;48.810;9.120;2023-05-17T12:23:43;13.60;59.10
210;DHT22;90;48.810;9.120;2023-05-17T12:26:12;13.70;57.70
210;DHT22;90;48.810;9.120;2023-05-17T12:28:42;13.70;57.30
210;DHT22;90;48.810;9.120;2023-05-17T12:31:10;13.70;57.70
210;DHT22;90;48.810;9.120;2023-05-17T12:33:38;13.80;58.80
210;DHT22;90;48.810;9.120;2023-05-17T12:36:07;13.80;60.30
210;DHT22;90;48.810;9.120;2023-05-17T12:38:35;13.90;67.70
210;DHT22;90;48.810;9.120;2023-05-17T12:41:03;13.80;60.50
210;DHT22;90;48.810;9.120;2023-05-17T12:43:33;13.70;59.60
210;DHT22;90;48.810;9.120;2023-05-17T12:46:05;13.60;59.70
210;DHT22;90;48.810;9.120;2023-05-17T12:48:33;13.70;60.50
210;DHT22;90;48.810;9.120;2023-05-17T12:51:08;13.70;60.30
210;DHT22;90;48.810;9.120;2023-05-17T12:53:35;13.90;60.50
210;DHT22;90;48.810;9.120;2023-05-17T12:56:03;14.10;59.90
210;DHT22;90;48.810;9.120;2023-05-17T12:58:29;14.20;58.70
210;DHT22;90;48.810;9.120;2023-05-17T13:00:59;14.40;57.80
210;DHT22;90;48.810;9.120;2023-05-17T13:03:26;14.40;58.70
210;DHT22;90;48.810;9.120;2023-05-17T13:06:02;14.50;58.40
210;DHT22;90;48.810;9.120;2023-05-17T13:08:29;14.60;57.70
210;DHT22;90;48.810;9.120;2023-05-17T13:11:09;14.70;57.60
210;DHT22;90;48.810;9.120;2023-05-17T13:13:36;14.90;57.00
210;DHT22;90;48.810;9.120;2023-05-17T13:16:05;15.30;56.20
210;DHT22;90;48.810;9.120;2023-05-17T13:18:49;15.30;55.40
210;DHT22;90;48.810;9.120;2023-05-17T13:21:17;15.10;54.60
210;DHT22;90;48.810;9.120;2023-05-17T13:23:45;14.60;54.30
210;DHT22;90;48.810;9.120;2023-05-17T13:26:12;14.50;55.50
210;DHT22;90;48.810;9.120;2023-05-17T13:28:39;14.60;56.20
210;DHT22;90;48.810;9.120;2023-05-17T13:31:08;14.90;56.50
210;DHT22;90;48.810;9.120;2023-05-17T13:33:34;15.00;55.80
210;DHT22;90;48.810;9.120;2023-05-17T13:36:01;15.10;56.00
210;DHT22;90;48.810;9.120;2023-05-17T13:38:28;14.90;55.20
210;DHT22;90;48.810;9.120;2023-05-17T13:40:55;14.90;56.20
210;DHT22;90;48.810;9.120;2023-05-17T13:43:21;14.90;56.20
210;DHT22;90;48.810;9.120;2023-05-17T13:45:48;14.80;56.90
210;DHT22;90;48.810;9.120;2023-05-17T13:48:20;14.70;56.80
210;DHT22;90;48.810;9.120;2023-05-17T13:50:46;14.70;56.30
210;DHT22;90;48.810;9.120;2023-05-17T13:53:13;14.70;56.40
210;DHT22;90;48.810;9.120;2023-05-17T13:55:40;14.50;56.60
210;DHT22;90;48.810;9.120;2023-05-17T13:58:06;14.30;57.30
210;DHT22;90;48.810;9.120;2023-05-17T14:00:33;14.20;57.10
210;DHT22;90;48.810;9.120;2023-05-17T14:03:00;14.00;58.20
210;DHT22;90;48.810;9.120;2023-05-17T14:05:28;14.00;58.60
210;DHT22;90;48.810;9.120;2023-05-17T14:07:57;14.00;59.50
210;DHT22;90;48.810;9.120;2023-05-17T14:10:24;14.00;58.50
210;DHT22;90;48.810;9.120;2023-05-17T14:12:51;14.00;59.00
210;DHT22;90;48.810;9.120;2023-05-17T14:15:17;14.00;59.10
210;DHT22;90;48.810;9.120;2023-05-17T14:17:44;13.90;58.90
210;DHT22;90;48.810;9.120;2023-05-17T14:20:11;13.80;59.80
210;DHT22;90;48.810;9.120;2023-05-17T14:22:40;13.80;59.70
210;DHT22;90;48.810;9.120;2023-05-17T14:25:08;13.90;59.30
210;DHT22;90;48.810;9.120;2023-05-17T14:27:35;14.00;59.20
210;DHT22;90;48.810;9.120;2023-05-17T14:30:02;14.00;59.30
210;DHT22;90;48.810;9.120;2023-05-17T14:32:29;14.00;58.60
210;DHT22;90;48.810;9.120;2023-05-17T14:34:56;14.00;58.80
210;DHT22;90;48.810;9.120;2023-05-17T14:37:22;14.00;59.40
210;DHT22;90;48.810;9.120;2023-05-17T14:39:50;14.00;59.10
210;DHT22;90;48.810;9.120;2023-05-17T14:42:17;14.00;57.20
210;DHT22;90;48.810;9.120;2023-05-17T14:44:44;13.90;58.40
210;DHT22;90;48.810;9.120;2023-05-17T14:47:10;13.90;58.30
210;DHT22;90;48.810;9.120;2023-05-17T14:49:37;13.70;58.30
210;DHT22;90;48.810;9.120;2023-05-17T14:52:04;13.60;59.00
210;DHT22;90;48.810;9.120;2023-05-17T14:54:30;13.50;59.50
210;DHT22;90;48.810;9.120;2023-05-17T14:56:58;13.50;59.50
210;DHT22;90;48.810;9.120;2023-05-17T14:59:25;13.50;60.40
210;DHT22;90;48.810;9.120;2023-05-17T15:01:52;13.50;60.80
210;DHT22;90;48.810;9.120;2023-05-17T15:04:19;13.30;61.40
210;DHT22;90;48.810;9.120;2023-05-17T15:06:45;13.30;61.40
210;DHT22;90;48.810;9.120;2023-05-17T15:09:12;13.20;61.90
210;DHT22;90;48.810;9.120;2023-05-17T15:11:42;13.30;63.10
210;DHT22;90;48.810;9.120;2023-05-17T15:14:10;13.30;62.00
210;DHT22;90;48.810;9.120;2023-05-17T15:16:37;13.20;61.70
210;DHT22;90;48.810;9.120;2023-05-17T15:19:04;13.10;61.70
210;DHT22;90;48.810;9.120;2023-05-17T15:21:31;13.10;61.70
210;DHT22;90;48.810;9.120;2023-05-17T15:23:58;13.10;61.90
210;DHT22;90;48.810;9.120;2023-05-17T15:26:25;13.10;62.70
210;DHT22;90;48.810;9.120;2023-05-17T15:28:51;13.20;63.00
210;DHT22;90;48.810;9.120;2023-05-17T15:31:20;13.30;62.10
210;DHT22;90;48.810;9.120;2023-05-17T15:33:48;13.40;62.80
210;DHT22;90;48.810;9.120;2023-05-17T15:36:15;13.50;62.50
210;DHT22;90;48.810;9.120;2023-05-17T15:38:42;13.60;61.60
210;DHT22;90;48.810;9.120;2023-05-17T15:41:10;13.70;61.40
210;DHT22;90;48.810;9.120;2023-05-17T15:43:38;13.80;61.50
210;DHT22;90;48.810;9.120;2023-05-17T15:46:05;14.00;61.10
210;DHT22;90;48.810;9.120;2023-05-17T15:48:33;14.40;60.30
210;DHT22;90;48.810;9.120;2023-05-17T15:51:00;14.60;59.90
210;DHT22;90;48.810;9.120;2023-05-17T15:53:28;14.70;58.50
210;DHT22;90;48.810;9.120;2023-05-17T15:55:55;14.70;58.70
210;DHT22;90;48.810;9.120;2023-05-17T15:58:23;14.90;58.40
210;DHT22;90;48.810;9.120;2023-05-17T16:00:49;15.10;56.80
210;DHT22;90;48.810;9.120;2023-05-17T16:03:16;15.10;55.80
210;DHT22;90;48.810;9.120;2023-05-17T16:05:44;15.20;56.70
210;DHT22;90;48.810;9.120;2023-05-17T16:08:11;15.30;56.10
210;DHT22;90;48.810;9.120;2023-05-17T16:10:38;15.60;55.60
210;DHT22;90;48.810;9.120;2023-05-17T16:13:05;15.80;55.60
210;DHT22;90;48.810;9.120;2023-05-17T16:15:32;15.90;54.10
210;DHT22;90;48.810;9.120;2023-05-17T16:17:58;16.00;54.10
210;DHT22;90;48.810;9.120;2023-05-17T16:20:25;16.20;53.60
210;DHT22;90;48.810;9.120;2023-05-17T16:22:54;16.40;52.80
210;DHT22;90;48.810;9.120;2023-05-17T16:25:22;16.70;53.30
210;DHT22;90;48.810;9.120;2023-05-17T16:27:50;16.80;51.90
210;DHT22;90;48.810;9.120;2023-05-17T16:30:17;16.60;51.90
210;DHT22;90;48.810;9.120;2023-05-17T16:32:45;16.40;53.10
210;DHT22;90;48.810;9.120;2023-05-17T16:35:12;16.50;53.20
210;DHT22;90;48.810;9.120;2023-05-17T16:37:38;16.50;53.80
210;DHT22;90;48.810;9.120;2023-05-17T16:40:08;16.50;53.00
210;DHT22;90;48.810;9.120;2023-05-17T16:42:35;16.20;53.00
210;DHT22;90;48.810;9.120;2023-05-17T16:45:01;16.00;54.00
210;DHT22;90;48.810;9.120;2023-05-17T16:47:28;15.80;54.30
210;DHT22;90;48.810;9.120;2023-05-17T16:49:55;15.50;54.40
210;DHT22;90;48.810;9.120;2023-05-17T16:52:22;15.60;53.90
210;DHT22;90;48.810;9.120;2023-05-17T16:54:48;15.80;52.80
210;DHT22;90;48.810;9.120;2023-05-17T16:57:16;15.70;53.10
210;DHT22;90;48.810;9.120;2023-05-17T16:59:43;15.80;53.30
210;DHT22;90;48.810;9.120;2023-05-17T17:02:10;15.70;52.50
210;DHT22;90;48.810;9.120;2023-05-17T17:04:36;15.70;53.20